General Aviation Weather

Text Reports

Enter one or more of the following location identifiers separated by a space:

Zip Code, Four-Character ICAO or Three-Character IATA airport codes.

METAR - Aviation Routine Weather Report
KETH - Wheaton NDB, Minnesota
Updated at 10:35 PM GMT on August 01, 2015 (5:35 PM CDT):
METAR KETH 012235Z AUTO 24007KT 10SM CLR 29/20 A2978 RMK AO2
TAF - Terminal Area Forecast
KETH - Wheaton NDB, Minnesota
Updated at 10:35 PM GMT on August 01, 2015 (5:35 PM CDT):
No TAF is currently available for this location.
Decoded:
No decoded TAF is available.
PIREP - Pilot Weather Report
KETH - Wheaton NDB, Minnesota
Updated at 10:35 PM GMT on August 01, 2015 (5:35 PM CDT):
No PIREP is currently available for this location.
AIRMET - Airmens Meteorological Information
KETH - Wheaton NDB, Minnesota
Updated at 10:35 PM GMT on August 01, 2015 (5:35 PM CDT):
No AIRMET is currently available for this location.
SIGMET - Significant Meteorological Information
KETH - Wheaton NDB, Minnesota
Updated at 10:35 PM GMT on August 01, 2015 (5:35 PM CDT):
No SIGMET is currently available for this location.
NOTAM - Notice to Airmen
KETH - Wheaton NDB, Minnesota
Updated at 10:35 PM GMT on August 01, 2015 (5:35 PM CDT):
No NOTAM is currently available for this location.
Forecast Area
KETH - Wheaton NDB, Minnesota
Updated at 10:35 PM GMT on August 01, 2015 (5:35 PM CDT):
No NOTAM is currently available for this location.
Aviation Weather Maps